sensor_id;sensor_type;location;lat;lon;timestamp;pressure;altitude;pressure_sealevel;temperature;humidity
39363;BME280;25088;43.238;23.110;2023-02-11T00:01:58;98322.06;;;-5.43;69.63
39363;BME280;25088;43.238;23.110;2023-02-11T00:04:25;98317.72;;;-5.44;68.73
39363;BME280;25088;43.238;23.110;2023-02-11T00:06:50;98332.44;;;-5.51;68.38
39363;BME280;25088;43.238;23.110;2023-02-11T00:09:16;98320.63;;;-5.60;68.08
39363;BME280;25088;43.238;23.110;2023-02-11T00:11:41;98336.56;;;-5.47;68.31
39363;BME280;25088;43.238;23.110;2023-02-11T00:14:09;98324.34;;;-5.50;68.92
39363;BME280;25088;43.238;23.110;2023-02-11T00:16:35;98326.31;;;-5.40;68.06
39363;BME280;25088;43.238;23.110;2023-02-11T00:19:02;98325.38;;;-5.39;68.22
39363;BME280;25088;43.238;23.110;2023-02-11T00:21:29;98319.97;;;-5.51;67.54
39363;BME280;25088;43.238;23.110;2023-02-11T00:23:55;98299.28;;;-5.71;67.93
39363;BME280;25088;43.238;23.110;2023-02-11T00:26:23;98322.66;;;-5.63;69.63
39363;BME280;25088;43.238;23.110;2023-02-11T00:28:50;98316.69;;;-5.67;69.71
39363;BME280;25088;43.238;23.110;2023-02-11T00:31:17;98286.84;;;-5.83;69.30
39363;BME280;25088;43.238;23.110;2023-02-11T00:33:44;98315.53;;;-5.63;68.58
39363;BME280;25088;43.238;23.110;2023-02-11T00:36:15;98310.31;;;-5.52;67.28
39363;BME280;25088;43.238;23.110;2023-02-11T00:38:43;98303.59;;;-5.57;67.33
39363;BME280;25088;43.238;23.110;2023-02-11T00:41:09;98303.31;;;-5.65;68.17
39363;BME280;25088;43.238;23.110;2023-02-11T00:43:35;98307.03;;;-5.68;68.21
39363;BME280;25088;43.238;23.110;2023-02-11T00:46:01;98298.00;;;-5.65;67.80
39363;BME280;25088;43.238;23.110;2023-02-11T00:48:26;98285.75;;;-5.68;68.07
39363;BME280;25088;43.238;23.110;2023-02-11T00:50:51;98293.81;;;-5.57;66.95
39363;BME280;25088;43.238;23.110;2023-02-11T00:53:17;98291.50;;;-5.61;67.31
39363;BME280;25088;43.238;23.110;2023-02-11T00:55:42;98285.47;;;-5.52;66.41
39363;BME280;25088;43.238;23.110;2023-02-11T00:58:08;98279.81;;;-5.48;65.63
39363;BME280;25088;43.238;23.110;2023-02-11T01:00:33;98281.28;;;-5.43;65.27
39363;BME280;25088;43.238;23.110;2023-02-11T01:02:59;98285.66;;;-5.42;65.85
39363;BME280;25088;43.238;23.110;2023-02-11T01:05:24;98276.59;;;-5.40;65.83
39363;BME280;25088;43.238;23.110;2023-02-11T01:07:50;98279.16;;;-5.38;66.15
39363;BME280;25088;43.238;23.110;2023-02-11T01:10:16;98280.41;;;-5.31;65.97
39363;BME280;25088;43.238;23.110;2023-02-11T01:12:41;98285.59;;;-5.30;64.98
39363;BME280;25088;43.238;23.110;2023-02-11T01:15:07;98287.13;;;-5.38;66.52
39363;BME280;25088;43.238;23.110;2023-02-11T01:17:34;98284.59;;;-5.40;68.29
39363;BME280;25088;43.238;23.110;2023-02-11T01:20:05;98291.72;;;-5.40;70.01
39363;BME280;25088;43.238;23.110;2023-02-11T01:22:31;98288.56;;;-5.46;68.17
39363;BME280;25088;43.238;23.110;2023-02-11T01:24:59;98283.50;;;-5.61;68.79
39363;BME280;25088;43.238;23.110;2023-02-11T01:27:25;98285.53;;;-5.65;66.74
39363;BME280;25088;43.238;23.110;2023-02-11T01:29:50;98279.13;;;-5.62;67.17
39363;BME280;25088;43.238;23.110;2023-02-11T01:32:17;98280.59;;;-5.58;67.03
39363;BME280;25088;43.238;23.110;2023-02-11T01:34:42;98280.00;;;-5.62;66.59
39363;BME280;25088;43.238;23.110;2023-02-11T01:37:07;98270.91;;;-5.83;67.55
39363;BME280;25088;43.238;23.110;2023-02-11T01:39:33;98253.88;;;-6.05;68.38
39363;BME280;25088;43.238;23.110;2023-02-11T01:41:59;98276.97;;;-5.81;66.64
39363;BME280;25088;43.238;23.110;2023-02-11T01:44:31;98277.81;;;-5.81;66.95
39363;BME280;25088;43.238;23.110;2023-02-11T01:46:58;98282.84;;;-5.89;66.97
39363;BME280;25088;43.238;23.110;2023-02-11T01:49:46;98278.16;;;-5.85;66.67
39363;BME280;25088;43.238;23.110;2023-02-11T01:52:24;98277.91;;;-5.82;67.07
39363;BME280;25088;43.238;23.110;2023-02-11T01:54:53;98280.03;;;-5.75;67.30
39363;BME280;25088;43.238;23.110;2023-02-11T01:57:41;98272.91;;;-5.74;66.38
39363;BME280;25088;43.238;23.110;2023-02-11T02:00:17;98276.78;;;-5.67;65.59
39363;BME280;25088;43.238;23.110;2023-02-11T02:03:11;98274.94;;;-5.54;64.79
39363;BME280;25088;43.238;23.110;2023-02-11T02:08:24;98254.56;;;-5.66;64.79
39363;BME280;25088;43.238;23.110;2023-02-11T02:10:54;98277.75;;;-5.55;64.59
39363;BME280;25088;43.238;23.110;2023-02-11T02:13:23;98275.78;;;-5.53;65.18
39363;BME280;25088;43.238;23.110;2023-02-11T02:15:54;98286.44;;;-5.53;65.04
39363;BME280;25088;43.238;23.110;2023-02-11T02:21:55;98267.94;;;-5.55;64.84
39363;BME280;25088;43.238;23.110;2023-02-11T02:29:49;98269.00;;;-5.57;64.76
39363;BME280;25088;43.238;23.110;2023-02-11T02:38:26;98266.66;;;-5.86;65.68
39363;BME280;25088;43.238;23.110;2023-02-11T02:41:05;98263.03;;;-5.85;66.19
39363;BME280;25088;43.238;23.110;2023-02-11T02:43:32;98261.94;;;-5.82;66.87
39363;BME280;25088;43.238;23.110;2023-02-11T02:46:12;98261.28;;;-5.73;64.94
39363;BME280;25088;43.238;23.110;2023-02-11T02:48:38;98238.19;;;-5.73;64.72
39363;BME280;25088;43.238;23.110;2023-02-11T02:51:50;98249.97;;;-5.64;65.55
39363;BME280;25088;43.238;23.110;2023-02-11T03:00:17;98266.63;;;-5.49;64.55
39363;BME280;25088;43.238;23.110;2023-02-11T03:03:06;98263.91;;;-5.60;64.65
39363;BME280;25088;43.238;23.110;2023-02-11T03:08:56;98265.31;;;-5.67;65.20
39363;BME280;25088;43.238;23.110;2023-02-11T03:11:25;98255.56;;;-5.80;65.57
39363;BME280;25088;43.238;23.110;2023-02-11T03:13:53;98256.81;;;-5.73;65.36
39363;BME280;25088;43.238;23.110;2023-02-11T03:16:25;98257.91;;;-5.75;66.59
39363;BME280;25088;43.238;23.110;2023-02-11T03:19:05;98256.22;;;-5.76;65.71
39363;BME280;25088;43.238;23.110;2023-02-11T03:21:35;98223.44;;;-6.01;66.23
39363;BME280;25088;43.238;23.110;2023-02-11T03:24:06;98256.25;;;-5.89;66.25
39363;BME280;25088;43.238;23.110;2023-02-11T03:26:37;98254.69;;;-5.91;66.35
39363;BME280;25088;43.238;23.110;2023-02-11T03:31:44;98243.78;;;-5.88;66.01
39363;BME280;25088;43.238;23.110;2023-02-11T03:34:15;98250.72;;;-5.86;65.14
39363;BME280;25088;43.238;23.110;2023-02-11T03:36:48;98246.50;;;-5.77;65.23
39363;BME280;25088;43.238;23.110;2023-02-11T03:39:20;98229.81;;;-5.79;64.54
39363;BME280;25088;43.238;23.110;2023-02-11T03:41:48;98257.63;;;-5.59;64.05
39363;BME280;25088;43.238;23.110;2023-02-11T03:44:15;98243.59;;;-5.61;63.67
39363;BME280;25088;43.238;23.110;2023-02-11T03:46:45;98248.16;;;-5.63;63.76
39363;BME280;25088;43.238;23.110;2023-02-11T03:49:14;98255.31;;;-5.64;63.99
39363;BME280;25088;43.238;23.110;2023-02-11T03:51:42;98178.34;;;-6.02;63.41
39363;BME280;25088;43.238;23.110;2023-02-11T03:54:12;98240.31;;;-5.65;62.71
39363;BME280;25088;43.238;23.110;2023-02-11T03:56:48;98252.34;;;-5.48;62.19
39363;BME280;25088;43.238;23.110;2023-02-11T03:59:15;98252.81;;;-5.54;63.19
39363;BME280;25088;43.238;23.110;2023-02-11T04:01:40;98248.81;;;-5.60;62.97
39363;BME280;25088;43.238;23.110;2023-02-11T04:04:06;98252.19;;;-5.58;62.91
39363;BME280;25088;43.238;23.110;2023-02-11T04:06:31;98252.19;;;-5.58;62.53
39363;BME280;25088;43.238;23.110;2023-02-11T04:08:56;98235.16;;;-5.79;63.13
39363;BME280;25088;43.238;23.110;2023-02-11T04:11:22;98248.16;;;-5.63;62.99
39363;BME280;25088;43.238;23.110;2023-02-11T04:13:47;98242.84;;;-5.63;63.32
39363;BME280;25088;43.238;23.110;2023-02-11T04:16:13;98220.03;;;-5.79;62.83
39363;BME280;25088;43.238;23.110;2023-02-11T04:18:38;98250.88;;;-5.52;62.11
39363;BME280;25088;43.238;23.110;2023-02-11T04:21:04;98219.66;;;-5.61;61.48
39363;BME280;25088;43.238;23.110;2023-02-11T04:23:29;98235.97;;;-5.42;61.46
39363;BME280;25088;43.238;23.110;2023-02-11T04:25:55;98225.75;;;-5.48;61.64
39363;BME280;25088;43.238;23.110;2023-02-11T04:28:20;98230.97;;;-5.47;61.63
39363;BME280;25088;43.238;23.110;2023-02-11T04:30:48;98226.38;;;-5.44;60.74
39363;BME280;25088;43.238;23.110;2023-02-11T04:33:14;98210.03;;;-5.51;60.15
39363;BME280;25088;43.238;23.110;2023-02-11T04:35:40;98219.06;;;-5.30;60.69
39363;BME280;25088;43.238;23.110;2023-02-11T04:38:05;98212.88;;;-5.30;60.23
39363;BME280;25088;43.238;23.110;2023-02-11T04:40:31;98204.75;;;-5.40;61.51
39363;BME280;25088;43.238;23.110;2023-02-11T04:42:56;98203.44;;;-5.58;61.59
39363;BME280;25088;43.238;23.110;2023-02-11T04:45:22;98205.78;;;-5.54;61.42
39363;BME280;25088;43.238;23.110;2023-02-11T04:47:47;98203.41;;;-5.46;61.95
39363;BME280;25088;43.238;23.110;2023-02-11T04:50:13;98202.47;;;-5.33;60.91
39363;BME280;25088;43.238;23.110;2023-02-11T04:52:38;98197.47;;;-5.38;62.07
39363;BME280;25088;43.238;23.110;2023-02-11T04:55:04;98206.06;;;-5.46;61.30
39363;BME280;25088;43.238;23.110;2023-02-11T04:57:29;98201.06;;;-5.50;61.17
39363;BME280;25088;43.238;23.110;2023-02-11T04:59:55;98155.66;;;-5.71;61.30
39363;BME280;25088;43.238;23.110;2023-02-11T05:02:20;98190.66;;;-5.53;61.14
39363;BME280;25088;43.238;23.110;2023-02-11T05:04:46;98187.00;;;-5.52;61.42
39363;BME280;25088;43.238;23.110;2023-02-11T05:07:11;98187.00;;;-5.52;61.32
39363;BME280;25088;43.238;23.110;2023-02-11T05:09:37;98187.00;;;-5.52;61.33
39363;BME280;25088;43.238;23.110;2023-02-11T05:12:03;98189.00;;;-5.43;59.80
39363;BME280;25088;43.238;23.110;2023-02-11T05:14:28;98188.28;;;-5.45;60.95
39363;BME280;25088;43.238;23.110;2023-02-11T05:16:53;98155.00;;;-5.75;61.63
39363;BME280;25088;43.238;23.110;2023-02-11T05:19:19;98186.63;;;-5.59;61.82
39363;BME280;25088;43.238;23.110;2023-02-11T05:21:44;98188.91;;;-5.65;61.26
39363;BME280;25088;43.238;23.110;2023-02-11T05:24:10;98186.19;;;-5.53;60.66
39363;BME280;25088;43.238;23.110;2023-02-11T05:26:35;98186.19;;;-5.53;61.16
39363;BME280;25088;43.238;23.110;2023-02-11T05:29:01;98188.56;;;-5.61;60.91
39363;BME280;25088;43.238;23.110;2023-02-11T05:31:26;98185.97;;;-5.74;62.30
39363;BME280;25088;43.238;23.110;2023-02-11T05:33:52;98188.78;;;-5.88;62.68
39363;BME280;25088;43.238;23.110;2023-02-11T05:36:17;98183.00;;;-5.93;62.62
39363;BME280;25088;43.238;23.110;2023-02-11T05:38:43;98207.19;;;-5.85;63.38
39363;BME280;25088;43.238;23.110;2023-02-11T05:41:09;98194.88;;;-5.86;63.14
39363;BME280;25088;43.238;23.110;2023-02-11T05:43:35;98178.47;;;-6.04;62.77
39363;BME280;25088;43.238;23.110;2023-02-11T05:46:02;98200.19;;;-5.86;62.24
39363;BME280;25088;43.238;23.110;2023-02-11T05:48:28;98132.19;;;-6.25;62.36
39363;BME280;25088;43.238;23.110;2023-02-11T05:50:54;98201.75;;;-5.83;62.37
39363;BME280;25088;43.238;23.110;2023-02-11T05:53:19;98171.88;;;-5.87;61.94
39363;BME280;25088;43.238;23.110;2023-02-11T05:55:45;98208.56;;;-5.55;60.92
39363;BME280;25088;43.238;23.110;2023-02-11T05:58:10;98213.69;;;-5.41;61.24
39363;BME280;25088;43.238;23.110;2023-02-11T06:00:36;98209.88;;;-5.26;60.90
39363;BME280;25088;43.238;23.110;2023-02-11T06:03:02;98205.72;;;-5.06;60.59
39363;BME280;25088;43.238;23.110;2023-02-11T06:05:29;98210.84;;;-4.58;58.88
39363;BME280;25088;43.238;23.110;2023-02-11T06:07:54;98201.88;;;-4.01;56.60
39363;BME280;25088;43.238;23.110;2023-02-11T06:10:20;98194.16;;;-3.60;54.43
39363;BME280;25088;43.238;23.110;2023-02-11T06:12:46;98201.53;;;-3.21;53.49
39363;BME280;25088;43.238;23.110;2023-02-11T06:15:11;98204.59;;;-3.04;53.25
39363;BME280;25088;43.238;23.110;2023-02-11T06:17:37;98197.69;;;-2.86;52.30
39363;BME280;25088;43.238;23.110;2023-02-11T06:20:05;98193.22;;;-2.55;51.39
39363;BME280;25088;43.238;23.110;2023-02-11T06:22:31;98192.63;;;-2.38;51.47
39363;BME280;25088;43.238;23.110;2023-02-11T06:24:57;98194.22;;;-2.25;51.40
39363;BME280;25088;43.238;23.110;2023-02-11T06:27:22;98184.97;;;-2.12;49.79
39363;BME280;25088;43.238;23.110;2023-02-11T06:29:48;98195.50;;;-1.70;48.83
39363;BME280;25088;43.238;23.110;2023-02-11T06:32:14;98204.44;;;-1.50;48.10
39363;BME280;25088;43.238;23.110;2023-02-11T06:34:40;98195.28;;;-1.28;48.49
39363;BME280;25088;43.238;23.110;2023-02-11T06:37:05;98191.06;;;-1.01;47.94
39363;BME280;25088;43.238;23.110;2023-02-11T06:39:31;98193.13;;;-0.66;46.79
39363;BME280;25088;43.238;23.110;2023-02-11T06:41:57;98192.38;;;-0.39;46.25
39363;BME280;25088;43.238;23.110;2023-02-11T06:44:22;98192.09;;;-0.09;45.30
39363;BME280;25088;43.238;23.110;2023-02-11T06:46:48;98197.72;;;-0.02;45.37
39363;BME280;25088;43.238;23.110;2023-02-11T06:49:13;98190.25;;;-0.08;45.01
39363;BME280;25088;43.238;23.110;2023-02-11T06:51:39;98175.78;;;0.30;44.81
39363;BME280;25088;43.238;23.110;2023-02-11T06:54:05;98188.50;;;0.73;44.65
39363;BME280;25088;43.238;23.110;2023-02-11T06:56:31;98176.03;;;1.08;44.05
39363;BME280;25088;43.238;23.110;2023-02-11T06:58:57;98171.44;;;1.00;42.66
39363;BME280;25088;43.238;23.110;2023-02-11T07:01:24;98180.03;;;1.22;43.59
39363;BME280;25088;43.238;23.110;2023-02-11T07:03:50;98164.72;;;1.48;43.08
39363;BME280;25088;43.238;23.110;2023-02-11T07:06:19;98167.19;;;1.68;43.03
39363;BME280;25088;43.238;23.110;2023-02-11T07:08:45;98170.59;;;2.04;42.26
39363;BME280;25088;43.238;23.110;2023-02-11T07:11:19;98151.97;;;2.27;41.37
39363;BME280;25088;43.238;23.110;2023-02-11T07:13:46;98162.66;;;2.53;41.04
39363;BME280;25088;43.238;23.110;2023-02-11T07:16:14;98158.47;;;2.67;40.83
39363;BME280;25088;43.238;23.110;2023-02-11T07:18:40;98157.16;;;2.71;41.21
39363;BME280;25088;43.238;23.110;2023-02-11T07:21:08;98131.19;;;2.62;40.26
39363;BME280;25088;43.238;23.110;2023-02-11T07:23:34;98147.88;;;2.81;39.93
39363;BME280;25088;43.238;23.110;2023-02-11T07:26:05;98149.22;;;2.77;40.17
39363;BME280;25088;43.238;23.110;2023-02-11T07:28:31;98132.75;;;2.89;39.50
39363;BME280;25088;43.238;23.110;2023-02-11T07:30:57;98152.81;;;3.10;39.18
39363;BME280;25088;43.238;23.110;2023-02-11T07:33:22;98154.50;;;3.03;38.75
39363;BME280;25088;43.238;23.110;2023-02-11T07:35:48;98153.13;;;3.40;38.78
39363;BME280;25088;43.238;23.110;2023-02-11T07:38:13;98148.91;;;4.09;38.13
39363;BME280;25088;43.238;23.110;2023-02-11T07:40:39;98146.59;;;4.60;37.21
39363;BME280;25088;43.238;23.110;2023-02-11T07:43:04;98148.44;;;4.91;36.61
39363;BME280;25088;43.238;23.110;2023-02-11T07:45:30;98142.13;;;5.36;36.07
39363;BME280;25088;43.238;23.110;2023-02-11T07:47:55;98151.19;;;5.06;35.90
39363;BME280;25088;43.238;23.110;2023-02-11T07:50:21;98146.28;;;5.09;35.41
39363;BME280;25088;43.238;23.110;2023-02-11T07:52:46;98137.81;;;5.12;35.38
39363;BME280;25088;43.238;23.110;2023-02-11T07:55:12;98137.59;;;5.14;35.47
39363;BME280;25088;43.238;23.110;2023-02-11T07:57:37;98142.13;;;5.36;35.66
39363;BME280;25088;43.238;23.110;2023-02-11T08:00:04;98148.31;;;5.45;35.56
39363;BME280;25088;43.238;23.110;2023-02-11T08:02:30;98150.38;;;5.43;35.49
39363;BME280;25088;43.238;23.110;2023-02-11T08:04:55;98139.44;;;5.36;34.80
39363;BME280;25088;43.238;23.110;2023-02-11T08:07:21;98146.47;;;5.60;34.21
39363;BME280;25088;43.238;23.110;2023-02-11T08:09:46;98144.91;;;5.81;33.80
39363;BME280;25088;43.238;23.110;2023-02-11T08:12:12;98139.91;;;6.22;33.11
39363;BME280;25088;43.238;23.110;2023-02-11T08:14:37;98120.00;;;6.51;33.47
39363;BME280;25088;43.238;23.110;2023-02-11T08:17:03;98145.78;;;7.19;32.07
39363;BME280;25088;43.238;23.110;2023-02-11T08:19:29;98143.53;;;7.72;31.73
39363;BME280;25088;43.238;23.110;2023-02-11T08:21:55;98129.94;;;8.07;31.40
39363;BME280;25088;43.238;23.110;2023-02-11T08:24:21;98134.19;;;8.58;31.27
39363;BME280;25088;43.238;23.110;2023-02-11T08:26:47;98107.66;;;8.79;28.24
39363;BME280;25088;43.238;23.110;2023-02-11T08:29:13;98121.38;;;9.26;28.62
39363;BME280;25088;43.238;23.110;2023-02-11T08:31:41;98118.22;;;9.49;30.53
39363;BME280;25088;43.238;23.110;2023-02-11T08:34:07;98114.22;;;9.84;29.35
39363;BME280;25088;43.238;23.110;2023-02-11T08:36:35;98103.06;;;9.93;27.32
39363;BME280;25088;43.238;23.110;2023-02-11T08:39:05;98113.31;;;10.30;26.52
39363;BME280;25088;43.238;23.110;2023-02-11T08:41:32;98114.88;;;10.58;26.94
39363;BME280;25088;43.238;23.110;2023-02-11T08:43:58;98116.41;;;10.85;27.13
39363;BME280;25088;43.238;23.110;2023-02-11T08:46:23;98113.03;;;11.22;25.83
39363;BME280;25088;43.238;23.110;2023-02-11T08:48:49;98116.03;;;11.13;25.18
39363;BME280;25088;43.238;23.110;2023-02-11T08:51:18;98110.38;;;11.08;25.47
39363;BME280;25088;43.238;23.110;2023-02-11T08:53:44;98106.97;;;11.20;24.86
39363;BME280;25088;43.238;23.110;2023-02-11T08:56:11;98102.28;;;11.27;24.99
39363;BME280;25088;43.238;23.110;2023-02-11T08:58:37;98108.81;;;11.51;26.20
39363;BME280;25088;43.238;23.110;2023-02-11T09:01:16;98107.25;;;11.61;24.42
39363;BME280;25088;43.238;23.110;2023-02-11T09:03:42;98097.09;;;11.69;24.54
39363;BME280;25088;43.238;23.110;2023-02-11T09:06:09;98107.84;;;11.63;24.72
39363;BME280;25088;43.238;23.110;2023-02-11T09:08:36;98103.72;;;11.79;24.90
39363;BME280;25088;43.238;23.110;2023-02-11T09:11:02;98104.00;;;11.96;24.79
39363;BME280;25088;43.238;23.110;2023-02-11T09:13:29;98103.09;;;12.02;24.64
39363;BME280;25088;43.238;23.110;2023-02-11T09:15:54;98102.03;;;12.03;23.99
39363;BME280;25088;43.238;23.110;2023-02-11T09:18:20;98100.72;;;11.87;24.62
39363;BME280;25088;43.238;23.110;2023-02-11T09:20:45;98096.56;;;11.85;24.14
39363;BME280;25088;43.238;23.110;2023-02-11T09:23:11;98099.25;;;12.10;24.52
39363;BME280;25088;43.238;23.110;2023-02-11T09:25:40;98099.78;;;12.19;23.78
39363;BME280;25088;43.238;23.110;2023-02-11T09:28:07;98093.94;;;12.33;23.82
39363;BME280;25088;43.238;23.110;2023-02-11T09:30:35;98092.88;;;12.34;24.46
39363;BME280;25088;43.238;23.110;2023-02-11T09:33:01;98089.44;;;12.39;23.75
39363;BME280;25088;43.238;23.110;2023-02-11T09:35:27;98078.34;;;12.34;23.06
39363;BME280;25088;43.238;23.110;2023-02-11T09:37:52;98081.44;;;12.56;22.28
39363;BME280;25088;43.238;23.110;2023-02-11T09:40:18;98072.41;;;12.67;22.76
39363;BME280;25088;43.238;23.110;2023-02-11T09:42:47;98060.84;;;12.83;21.90
39363;BME280;25088;43.238;23.110;2023-02-11T09:45:24;98064.25;;;12.79;22.34
39363;BME280;25088;43.238;23.110;2023-02-11T09:47:54;98058.56;;;12.92;22.92
39363;BME280;25088;43.238;23.110;2023-02-11T09:50:40;98050.72;;;12.96;23.45
39363;BME280;25088;43.238;23.110;2023-02-11T09:53:17;98042.78;;;13.06;23.46
39363;BME280;25088;43.238;23.110;2023-02-11T09:55:49;98026.66;;;12.98;23.39
39363;BME280;25088;43.238;23.110;2023-02-11T10:00:56;98018.66;;;12.84;23.28
39363;BME280;25088;43.238;23.110;2023-02-11T10:06:40;98008.66;;;13.02;22.66
39363;BME280;25088;43.238;23.110;2023-02-11T10:12:26;98004.84;;;13.03;22.30
39363;BME280;25088;43.238;23.110;2023-02-11T10:15:28;98002.03;;;13.21;23.09
39363;BME280;25088;43.238;23.110;2023-02-11T10:24:02;97990.38;;;13.37;22.88
39363;BME280;25088;43.238;23.110;2023-02-11T10:26:31;97979.31;;;13.44;21.80
39363;BME280;25088;43.238;23.110;2023-02-11T10:29:00;97976.53;;;13.56;22.74
39363;BME280;25088;43.238;23.110;2023-02-11T10:31:41;97958.03;;;13.75;22.76
39363;BME280;25088;43.238;23.110;2023-02-11T10:34:12;97978.78;;;13.82;21.90
39363;BME280;25088;43.238;23.110;2023-02-11T10:36:42;97973.53;;;13.81;22.61
39363;BME280;25088;43.238;23.110;2023-02-11T10:39:19;97965.88;;;13.94;21.94
39363;BME280;25088;43.238;23.110;2023-02-11T10:41:51;97953.25;;;13.82;22.54
39363;BME280;25088;43.238;23.110;2023-02-11T10:44:25;97962.69;;;14.26;22.68
39363;BME280;25088;43.238;23.110;2023-02-11T10:46:52;97967.31;;;14.66;21.77
39363;BME280;25088;43.238;23.110;2023-02-11T10:49:40;97950.09;;;14.70;20.11
39363;BME280;25088;43.238;23.110;2023-02-11T10:52:23;97946.59;;;14.75;20.38
39363;BME280;25088;43.238;23.110;2023-02-11T10:54:56;97950.97;;;15.05;20.42
39363;BME280;25088;43.238;23.110;2023-02-11T10:57:33;97944.44;;;15.11;20.74
39363;BME280;25088;43.238;23.110;2023-02-11T11:02:55;97939.78;;;15.11;20.48
39363;BME280;25088;43.238;23.110;2023-02-11T11:05:48;97930.38;;;14.90;20.83
39363;BME280;25088;43.238;23.110;2023-02-11T11:08:15;97932.63;;;14.93;19.95
39363;BME280;25088;43.238;23.110;2023-02-11T11:13:34;97923.69;;;14.41;20.63
39363;BME280;25088;43.238;23.110;2023-02-11T11:16:07;97919.44;;;14.95;20.71
39363;BME280;25088;43.238;23.110;2023-02-11T11:18:33;97915.63;;;15.13;20.40
39363;BME280;25088;43.238;23.110;2023-02-11T11:21:01;97913.44;;;15.32;19.65
39363;BME280;25088;43.238;23.110;2023-02-11T11:23:29;97911.47;;;15.49;20.04
39363;BME280;25088;43.238;23.110;2023-02-11T11:26:14;97903.91;;;15.40;20.03
39363;BME280;25088;43.238;23.110;2023-02-11T11:28:56;97903.47;;;15.48;20.25
39363;BME280;25088;43.238;23.110;2023-02-11T11:31:29;97896.09;;;15.70;19.61
39363;BME280;25088;43.238;23.110;2023-02-11T11:33:58;97896.47;;;16.01;19.33
39363;BME280;25088;43.238;23.110;2023-02-11T11:36:35;97887.94;;;16.24;19.13
39363;BME280;25088;43.238;23.110;2023-02-11T11:39:23;97885.91;;;15.71;19.23
39363;BME280;25088;43.238;23.110;2023-02-11T11:42:02;97888.13;;;15.52;20.58
39363;BME280;25088;43.238;23.110;2023-02-11T11:44:34;97889.53;;;15.55;19.82
39363;BME280;25088;43.238;23.110;2023-02-11T11:47:21;97890.53;;;15.27;20.15
39363;BME280;25088;43.238;23.110;2023-02-11T11:58:20;97869.34;;;15.10;20.07
39363;BME280;25088;43.238;23.110;2023-02-11T12:07:00;97836.88;;;14.90;20.36
39363;BME280;25088;43.238;23.110;2023-02-11T12:12:20;97843.34;;;15.18;20.40
39363;BME280;25088;43.238;23.110;2023-02-11T12:20:50;97841.38;;;15.35;19.97
39363;BME280;25088;43.238;23.110;2023-02-11T12:48:54;97804.31;;;16.41;19.09
39363;BME280;25088;43.238;23.110;2023-02-11T12:52:03;97795.56;;;16.17;19.60
39363;BME280;25088;43.238;23.110;2023-02-11T12:54:46;97793.88;;;16.43;19.38
39363;BME280;25088;43.238;23.110;2023-02-11T12:57:31;97790.53;;;16.41;20.25
39363;BME280;25088;43.238;23.110;2023-02-11T13:00:22;97781.34;;;16.30;20.75
39363;BME280;25088;43.238;23.110;2023-02-11T13:02:59;97784.75;;;16.37;20.74
39363;BME280;25088;43.238;23.110;2023-02-11T13:05:36;97789.41;;;15.61;20.88
39363;BME280;25088;43.238;23.110;2023-02-11T13:08:13;97794.78;;;15.94;20.61
39363;BME280;25088;43.238;23.110;2023-02-11T13:10:42;97784.97;;;16.03;20.00
39363;BME280;25088;43.238;23.110;2023-02-11T13:13:20;97777.22;;;16.27;20.84
39363;BME280;25088;43.238;23.110;2023-02-11T13:16:05;97777.91;;;16.13;20.02
39363;BME280;25088;43.238;23.110;2023-02-11T13:18:35;97779.56;;;16.14;20.14
39363;BME280;25088;43.238;23.110;2023-02-11T13:26:30;97775.47;;;16.16;19.78
39363;BME280;25088;43.238;23.110;2023-02-11T13:29:14;97780.22;;;16.26;20.54
39363;BME280;25088;43.238;23.110;2023-02-11T13:31:41;97775.28;;;16.28;20.31
39363;BME280;25088;43.238;23.110;2023-02-11T13:37:24;97770.41;;;16.08;20.35
39363;BME280;25088;43.238;23.110;2023-02-11T13:39:57;97768.94;;;16.00;20.36
39363;BME280;25088;43.238;23.110;2023-02-11T13:42:24;97770.00;;;15.94;20.67
39363;BME280;25088;43.238;23.110;2023-02-11T13:44:50;97746.97;;;15.79;20.64
39363;BME280;25088;43.238;23.110;2023-02-11T13:47:33;97755.56;;;15.82;20.68
39363;BME280;25088;43.238;23.110;2023-02-11T13:50:02;97736.22;;;15.55;21.70
39363;BME280;25088;43.238;23.110;2023-02-11T13:52:33;97761.13;;;15.43;21.04
39363;BME280;25088;43.238;23.110;2023-02-11T13:57:38;97745.38;;;15.61;21.28
39363;BME280;25088;43.238;23.110;2023-02-11T14:14:22;97721.47;;;15.17;21.16
39363;BME280;25088;43.238;23.110;2023-02-11T14:22:13;97707.84;;;15.06;20.90
39363;BME280;25088;43.238;23.110;2023-02-11T14:25:03;97712.19;;;15.02;21.71
39363;BME280;25088;43.238;23.110;2023-02-11T14:33:12;97714.81;;;14.19;24.13
39363;BME280;25088;43.238;23.110;2023-02-11T14:35:51;97719.22;;;14.20;22.40
39363;BME280;25088;43.238;23.110;2023-02-11T14:41:24;97716.13;;;13.26;25.09
39363;BME280;25088;43.238;23.110;2023-02-11T14:44:14;97704.41;;;12.90;25.72
39363;BME280;25088;43.238;23.110;2023-02-11T14:46:43;97690.63;;;12.38;26.11
39363;BME280;25088;43.238;23.110;2023-02-11T14:49:19;97704.69;;;12.18;26.03
39363;BME280;25088;43.238;23.110;2023-02-11T14:51:47;97711.84;;;10.69;27.84
39363;BME280;25088;43.238;23.110;2023-02-11T14:54:16;97707.00;;;8.76;32.40
39363;BME280;25088;43.238;23.110;2023-02-11T14:56:43;97732.44;;;6.89;34.63
39363;BME280;25088;43.238;23.110;2023-02-11T14:59:17;97732.50;;;5.70;37.21
39363;BME280;25088;43.238;23.110;2023-02-11T15:01:48;97735.59;;;5.03;38.99
39363;BME280;25088;43.238;23.110;2023-02-11T15:04:27;97732.78;;;4.60;40.43
39363;BME280;25088;43.238;23.110;2023-02-11T15:06:54;97731.47;;;4.12;41.50
39363;BME280;25088;43.238;23.110;2023-02-11T15:09:36;97744.25;;;3.88;42.45
39363;BME280;25088;43.238;23.110;2023-02-11T15:12:03;97733.72;;;3.56;43.53
39363;BME280;25088;43.238;23.110;2023-02-11T15:14:31;97748.31;;;3.47;43.85
39363;BME280;25088;43.238;23.110;2023-02-11T15:17:01;97757.38;;;3.31;44.28
39363;BME280;25088;43.238;23.110;2023-02-11T15:21:56;97763.91;;;2.82;45.90
39363;BME280;25088;43.238;23.110;2023-02-11T15:24:30;97774.91;;;2.73;46.88
39363;BME280;25088;43.238;23.110;2023-02-11T15:29:46;97777.09;;;2.30;48.13